Terminal Aerodrome Forecast
Issued by NWS

Home | Current Version | Previous Version | Text Only | Print | Product List | Glossary On
Versions: 1 2 3 4 5 6 7 8 9 10 11 12 13 14 15 16 17 18 19 20 21 22
574
FTUS44 KSJT 270520
TAFJCT
TAF
KJCT 270520Z 2706/2806 10008KT P6SM SCT060 BKN200
     FM271200 VRB03KT 5SM BR BKN020
     FM271700 10006KT P6SM SCT030=

USA.gov is the U.S. government's official web portal to all federal, state and local government web resources and services.